Time;durP1;ratioP1;P1;durP2;ratioP2;P2;SDS_P1;SDS_P2;PMS_P1;PMS_P2;Temp;Humidity;BMP_temperature;BMP_pressure;BME280_temperature;BME280_humidity;BME280_pressure;Samples;Min_cycle;Max_cycle;Signal;HPM_P1;HPM_P2
2023/08/27 00:01:39;;;;;;;26.20;14.30;;;;;;;21.23;100.00;99201.14;109397;1251;70367;-73
2023/08/27 00:04:06;;;;;;;22.80;13.70;;;;;;;21.19;100.00;99196.85;109409;1251;72663;-73
2023/08/27 00:06:34;;;;;;;25.00;12.70;;;;;;;21.15;100.00;99192.66;109453;1251;60062;-73
2023/08/27 00:09:02;;;;;;;20.60;12.40;;;;;;;21.11;100.00;99189.58;109411;1251;59419;-73
2023/08/27 00:11:30;;;;;;;24.80;14.10;;;;;;;21.07;100.00;99190.82;109445;1251;74692;-73
2023/08/27 00:13:57;;;;;;;32.90;15.50;;;;;;;21.03;100.00;99189.91;109423;1251;70753;-73
2023/08/27 00:16:25;;;;;;;20.90;13.50;;;;;;;21.00;100.00;99190.34;109404;1251;72703;-73
2023/08/27 00:18:52;;;;;;;28.20;13.70;;;;;;;20.98;100.00;99188.89;109352;1253;60373;-73
2023/08/27 00:21:20;;;;;;;25.30;12.80;;;;;;;20.95;100.00;99193.05;109457;1251;58920;-74
2023/08/27 00:23:47;;;;;;;21.50;12.80;;;;;;;20.92;100.00;99191.00;109414;1252;73452;-74
2023/08/27 00:26:15;;;;;;;23.10;12.00;;;;;;;20.90;100.00;99188.89;109407;1251;72091;-73
2023/08/27 00:28:42;;;;;;;21.70;12.00;;;;;;;20.87;100.00;99188.55;109438;1251;71353;-73
2023/08/27 00:31:10;;;;;;;21.30;11.80;;;;;;;20.85;100.00;99190.86;109203;1251;61674;-74
2023/08/27 00:33:38;;;;;;;23.30;12.10;;;;;;;20.85;100.00;99194.29;109425;1251;59048;-74
2023/08/27 00:36:05;;;;;;;22.70;11.80;;;;;;;20.83;100.00;99192.34;109464;1251;73983;-73
2023/08/27 00:38:33;;;;;;;29.60;14.20;;;;;;;20.80;100.00;99196.85;109383;1251;70974;-73
2023/08/27 00:41:00;;;;;;;29.30;15.10;;;;;;;20.78;100.00;99199.66;109401;1252;72476;-73
2023/08/27 00:43:28;;;;;;;28.20;14.50;;;;;;;20.75;100.00;99197.58;109379;1255;58945;-74
2023/08/27 00:45:56;;;;;;;28.90;15.60;;;;;;;20.72;100.00;99201.89;109357;1251;58977;-74
2023/08/27 00:48:23;;;;;;;21.90;13.40;;;;;;;20.71;100.00;99203.08;109324;1251;73738;-73
2023/08/27 00:50:51;;;;;;;26.50;11.60;;;;;;;20.68;100.00;99209.34;109041;1251;412342;-73
2023/08/27 00:53:18;;;;;;;19.10;11.40;;;;;;;20.67;100.00;99213.92;109363;1253;72675;-74
2023/08/27 00:55:46;;;;;;;22.10;11.10;;;;;;;20.65;100.00;99221.05;109321;1251;59742;-73
2023/08/27 00:58:13;;;;;;;16.70;11.30;;;;;;;20.62;100.00;99227.14;109344;1251;59252;-73
2023/08/27 01:00:41;;;;;;;17.50;10.40;;;;;;;20.60;100.00;99234.03;109408;1251;74652;-73
2023/08/27 01:03:09;;;;;;;17.90;10.90;;;;;;;20.59;100.00;99234.27;109367;1251;71210;-73
2023/08/27 01:05:36;;;;;;;16.90;11.10;;;;;;;20.57;100.00;99229.10;109332;1251;72649;-74
2023/08/27 01:08:06;;;;;;;18.40;11.20;;;;;;;20.57;100.00;99230.55;109436;1253;58949;-74
2023/08/27 01:10:52;;;;;;;20.00;11.70;;;;;;;20.57;100.00;99231.30;109317;1251;60502;-74
2023/08/27 01:13:36;;;;;;;20.20;11.40;;;;;;;20.55;100.00;99234.10;109374;1256;75122;-73
2023/08/27 01:16:04;;;;;;;33.10;17.00;;;;;;;20.54;100.00;99235.56;109315;1251;70116;-74
2023/08/27 01:18:32;;;;;;;20.70;12.10;;;;;;;20.55;100.00;99236.95;109361;1251;72688;-73
2023/08/27 01:21:22;;;;;;;15.00;10.80;;;;;;;20.55;100.00;99237.67;109180;1251;59353;-73
2023/08/27 01:23:50;;;;;;;17.40;10.50;;;;;;;20.54;100.00;99232.54;109420;1251;59377;-73
2023/08/27 01:26:32;;;;;;;19.00;11.40;;;;;;;20.54;100.00;99234.33;109439;1255;75977;-73
2023/08/27 01:29:40;;;;;;;24.60;14.40;;;;;;;20.54;100.00;99231.69;109369;1251;70070;-73
2023/08/27 01:32:34;;;;;;;30.90;19.00;;;;;;;20.52;100.00;99224.88;109183;1253;71072;-73
2023/08/27 01:35:03;;;;;;;20.30;12.80;;;;;;;20.50;100.00;99226.31;109305;1251;60482;-74
2023/08/27 01:37:31;;;;;;;19.20;13.00;;;;;;;20.48;100.00;99227.02;109317;1251;59540;-74
2023/08/27 01:39:59;;;;;;;26.00;14.40;;;;;;;20.47;100.00;99220.70;109406;1251;73477;-74
2023/08/27 01:42:27;;;;;;;24.60;13.80;;;;;;;20.46;100.00;99221.83;109447;1251;70786;-73
2023/08/27 01:44:57;;;;;;;27.30;14.10;;;;;;;20.44;100.00;99218.93;109431;1251;71426;-73
2023/08/27 01:47:25;;;;;;;27.40;13.40;;;;;;;20.40;100.00;99215.48;109348;1251;60389;-73
2023/08/27 01:49:53;;;;;;;17.10;11.40;;;;;;;20.38;100.00;99219.40;109420;1251;59185;-73
2023/08/27 01:52:20;;;;;;;18.90;11.40;;;;;;;20.36;100.00;99218.52;109411;1251;73433;-74
2023/08/27 01:54:48;;;;;;;18.50;10.90;;;;;;;20.34;100.00;99216.73;109386;1251;71299;-74
2023/08/27 01:57:15;;;;;;;19.30;11.20;;;;;;;20.32;100.00;99214.19;109403;1251;71300;-74
2023/08/27 01:59:43;;;;;;;18.20;10.80;;;;;;;20.30;100.00;99215.77;109303;1251;61837;-74
2023/08/27 02:02:11;;;;;;;21.10;10.90;;;;;;;20.30;100.00;99214.02;109467;1251;60020;-74
2023/08/27 02:04:38;;;;;;;15.10;11.20;;;;;;;20.29;100.00;99213.73;109409;1251;74722;-74
2023/08/27 02:07:06;;;;;;;15.00;10.70;;;;;;;20.27;100.00;99213.84;109439;1251;69529;-74
2023/08/27 02:09:33;;;;;;;14.50;10.90;;;;;;;20.27;100.00;99216.55;109383;1253;71520;-74
2023/08/27 02:12:03;;;;;;;18.80;10.30;;;;;;;20.27;100.00;99209.96;109308;1254;60371;-74
2023/08/27 02:14:31;;;;;;;13.20;10.20;;;;;;;20.28;100.00;99205.08;109444;1251;59247;-73
2023/08/27 02:16:58;;;;;;;16.10;9.40;;;;;;;20.29;100.00;99210.90;109302;1251;74652;-73
2023/08/27 02:19:26;;;;;;;21.30;11.70;;;;;;;20.29;100.00;99210.73;109275;1251;70801;-74
2023/08/27 02:21:54;;;;;;;16.30;10.10;;;;;;;20.27;100.00;99216.38;109432;1251;72482;-74
2023/08/27 02:24:22;;;;;;;15.00;10.80;;;;;;;20.24;100.00;99211.25;109291;1251;61861;-74
2023/08/27 02:26:50;;;;;;;19.50;10.20;;;;;;;20.23;100.00;99209.02;109360;1251;59226;-74
2023/08/27 02:29:18;;;;;;;25.00;10.20;;;;;;;20.21;100.00;99212.02;109328;1251;73430;-73
2023/08/27 02:31:45;;;;;;;13.20;10.10;;;;;;;20.19;100.00;99213.58;109432;1250;69572;-73
2023/08/27 02:34:13;;;;;;;18.70;11.10;;;;;;;20.18;100.00;99212.49;109439;1253;72947;-74
2023/08/27 02:36:40;;;;;;;17.60;11.20;;;;;;;20.15;100.00;99210.70;109340;1251;61760;-74
2023/08/27 02:39:08;;;;;;;16.30;10.80;;;;;;;20.17;100.00;99214.54;109369;1251;58990;-74
2023/08/27 02:41:36;;;;;;;16.30;11.40;;;;;;;20.17;100.00;99219.81;109302;1251;74547;-74
2023/08/27 02:44:03;;;;;;;20.40;11.40;;;;;;;20.18;100.00;99216.40;109371;1251;71837;-74
2023/08/27 02:46:31;;;;;;;14.40;10.80;;;;;;;20.19;100.00;99216.27;109395;1254;73330;-74
2023/08/27 02:48:58;;;;;;;20.30;11.60;;;;;;;20.19;100.00;99215.92;109392;1251;62197;-74
2023/08/27 02:51:26;;;;;;;19.20;11.30;;;;;;;20.18;100.00;99215.09;109429;1251;60101;-74
2023/08/27 02:53:53;;;;;;;17.30;11.20;;;;;;;20.18;100.00;99217.92;109290;1251;74563;-73
2023/08/27 02:56:21;;;;;;;21.00;11.70;;;;;;;20.17;100.00;99223.02;109390;1251;70758;-74
2023/08/27 02:58:49;;;;;;;18.80;12.80;;;;;;;20.17;100.00;99228.23;109421;1254;71833;-73
2023/08/27 03:01:22;;;;;;;15.50;11.60;;;;;;;20.14;100.00;99228.05;109261;1251;60422;-74
2023/08/27 03:03:51;;;;;;;20.90;11.50;;;;;;;20.09;100.00;99230.45;109288;1251;60509;-73
2023/08/27 03:06:18;;;;;;;18.50;12.10;;;;;;;20.06;100.00;99231.75;109286;1251;75077;-74
2023/08/27 03:08:45;;;;;;;20.00;12.40;;;;;;;20.03;100.00;99232.99;109303;1251;71138;-73
2023/08/27 03:11:13;;;;;;;19.50;12.00;;;;;;;20.00;100.00;99234.81;109277;1251;71423;-74
2023/08/27 03:13:41;;;;;;;18.30;10.60;;;;;;;20.00;100.00;99232.77;109288;1254;61693;-74
2023/08/27 03:16:08;;;;;;;21.60;11.70;;;;;;;20.01;100.00;99230.31;109286;1251;59059;-74
2023/08/27 03:18:36;;;;;;;21.60;10.80;;;;;;;20.03;100.00;99229.33;109249;1251;74607;-74
2023/08/27 03:21:03;;;;;;;18.00;10.80;;;;;;;20.03;100.00;99231.02;109370;1251;71390;-74
2023/08/27 03:23:34;;;;;;;20.60;10.70;;;;;;;20.05;100.00;99227.00;109257;1251;71367;-74
2023/08/27 03:26:01;;;;;;;13.80;10.30;;;;;;;20.07;100.00;99217.61;108594;1251;1002278;-74
2023/08/27 03:28:29;;;;;;;14.80;10.10;;;;;;;20.09;100.00;99222.79;109376;1251;60056;-74
2023/08/27 03:30:57;;;;;;;20.10;12.40;;;;;;;20.10;100.00;99229.68;109292;1254;72918;-74
2023/08/27 03:33:24;;;;;;;19.70;12.30;;;;;;;20.06;100.00;99233.71;109426;1251;70782;-74
2023/08/27 03:35:54;;;;;;;14.30;10.70;;;;;;;20.01;100.00;99238.52;109367;1254;71064;-73
2023/08/27 03:38:21;;;;;;;20.50;11.40;;;;;;;20.00;100.00;99242.53;109376;1254;61726;-74
2023/08/27 03:40:49;;;;;;;18.10;11.10;;;;;;;20.01;100.00;99243.83;109412;1251;60106;-75
2023/08/27 03:43:17;;;;;;;17.90;11.10;;;;;;;20.02;100.00;99245.00;109419;1251;74762;-73
2023/08/27 03:45:44;;;;;;;16.70;11.20;;;;;;;20.04;100.00;99245.36;109259;1251;70295;-74
2023/08/27 03:48:12;;;;;;;16.80;10.50;;;;;;;20.08;100.00;99246.77;109263;1251;72661;-74
2023/08/27 03:50:39;;;;;;;23.00;10.60;;;;;;;20.09;100.00;99247.40;109413;1253;61627;-74
2023/08/27 03:53:07;;;;;;;14.60;10.30;;;;;;;20.11;100.00;99244.94;109407;1251;58927;-74
2023/08/27 03:55:41;;;;;;;20.40;11.80;;;;;;;20.11;100.00;99247.20;109428;1251;74583;-74
2023/08/27 03:58:09;;;;;;;23.30;13.50;;;;;;;20.13;100.00;99257.05;109282;1251;71149;-74
2023/08/27 04:00:38;;;;;;;27.30;12.70;;;;;;;20.14;100.00;99259.59;109380;1252;71836;-73
2023/08/27 04:03:06;;;;;;;31.80;14.40;;;;;;;20.16;100.00;99269.41;109270;1251;60397;-74
2023/08/27 04:05:33;;;;;;;25.20;14.10;;;;;;;20.15;100.00;99272.14;109403;1254;59021;-74
2023/08/27 04:08:01;;;;;;;32.30;14.70;;;;;;;20.14;100.00;99282.20;109283;1251;73333;-74
2023/08/27 04:10:29;;;;;;;26.30;14.00;;;;;;;20.15;100.00;99283.77;109313;1251;70756;-74
2023/08/27 04:12:57;;;;;;;21.60;14.00;;;;;;;20.16;100.00;99282.41;109370;1251;72709;-74
2023/08/27 04:15:26;;;;;;;34.60;14.90;;;;;;;20.19;100.00;99273.64;109421;1253;61564;-74
2023/08/27 04:17:53;;;;;;;19.40;13.20;;;;;;;20.23;100.00;99267.42;109394;1251;58910;-73
2023/08/27 04:20:21;;;;;;;28.70;13.70;;;;;;;20.28;100.00;99264.20;109375;1251;73348;-73
2023/08/27 04:22:49;;;;;;;25.70;13.60;;;;;;;20.34;100.00;99264.41;109388;1251;71212;-74
2023/08/27 04:25:16;;;;;;;29.00;14.70;;;;;;;20.40;100.00;99262.70;109376;1251;73047;-74
2023/08/27 04:27:45;;;;;;;23.70;13.90;;;;;;;20.47;100.00;99261.67;109362;1252;59004;-74
2023/08/27 04:30:13;;;;;;;31.80;16.50;;;;;;;20.54;100.00;99255.89;109404;1251;60073;-74
2023/08/27 04:32:41;;;;;;;33.20;18.40;;;;;;;20.62;100.00;99259.92;109365;1251;74657;-74
2023/08/27 04:35:08;;;;;;;33.60;20.50;;;;;;;20.69;100.00;99265.05;109412;1251;69777;-74
2023/08/27 04:37:36;;;;;;;47.20;24.00;;;;;;;20.77;100.00;99272.45;109326;1251;73036;-74
2023/08/27 04:40:04;;;;;;;37.00;20.50;;;;;;;20.85;100.00;99274.55;109244;1253;61900;-74
2023/08/27 04:42:31;;;;;;;22.80;14.90;;;;;;;20.93;100.00;99277.96;109424;1251;59992;-74
2023/08/27 04:44:59;;;;;;;18.10;13.50;;;;;;;21.00;100.00;99272.49;109295;1251;74763;-74
2023/08/27 04:47:26;;;;;;;21.20;14.00;;;;;;;21.09;100.00;99270.75;109387;1251;69897;-75
2023/08/27 04:49:54;;;;;;;26.30;13.40;;;;;;;21.17;100.00;99264.21;109374;1251;71436;-74
2023/08/27 04:52:22;;;;;;;25.60;12.60;;;;;;;21.26;100.00;99263.50;109416;1251;62702;-73
2023/08/27 04:54:59;;;;;;;26.10;12.80;;;;;;;21.35;100.00;99262.87;109297;1251;59975;-75
2023/08/27 04:57:26;;;;;;;25.30;14.00;;;;;;;21.43;100.00;99260.94;109384;1251;74658;-75
2023/08/27 04:59:54;;;;;;;16.70;12.10;;;;;;;21.53;100.00;99257.71;109416;1251;70874;-75
2023/08/27 05:02:22;;;;;;;18.60;11.60;;;;;;;21.64;100.00;99254.84;109366;1251;72133;-75
2023/08/27 05:04:50;;;;;;;18.00;11.60;;;;;;;21.75;100.00;99248.54;109399;1251;60387;-75
2023/08/27 05:07:18;;;;;;;19.30;12.30;;;;;;;21.84;100.00;99244.64;109287;1251;60031;-74
2023/08/27 05:09:46;;;;;;;19.20;11.30;;;;;;;21.94;100.00;99242.77;109303;1251;75272;-74
2023/08/27 05:12:14;;;;;;;24.00;11.90;;;;;;;22.03;100.00;99239.12;109267;1251;71514;-75
2023/08/27 05:14:41;;;;;;;20.80;11.20;;;;;;;22.13;100.00;99237.76;109355;1251;73159;-75
2023/08/27 05:17:10;;;;;;;22.20;12.10;;;;;;;22.22;100.00;99241.36;109331;1251;61796;-75
2023/08/27 05:19:37;;;;;;;18.70;12.20;;;;;;;22.33;100.00;99238.19;109362;1251;60031;-75
2023/08/27 05:22:06;;;;;;;28.00;12.50;;;;;;;22.45;100.00;99239.05;109270;1251;74620;-75
2023/08/27 05:24:34;;;;;;;24.10;12.60;;;;;;;22.57;100.00;99238.36;109281;1251;71411;-75
2023/08/27 05:27:03;;;;;;;18.50;12.60;;;;;;;22.69;100.00;99229.29;109347;1251;71414;-75
2023/08/27 05:29:31;;;;;;;20.50;11.60;;;;;;;22.81;100.00;99223.15;109267;1251;61703;-75
2023/08/27 05:31:58;;;;;;;19.10;12.60;;;;;;;22.94;100.00;99219.98;108640;1251;1002417;-75
2023/08/27 05:34:26;;;;;;;22.70;12.90;;;;;;;23.08;100.00;99225.64;109294;1251;73251;-75
2023/08/27 05:36:54;;;;;;;19.90;12.00;;;;;;;23.20;100.00;99228.27;109300;1251;70831;-74
2023/08/27 05:39:21;;;;;;;17.90;11.80;;;;;;;23.33;100.00;99223.64;109278;1251;72131;-74
2023/08/27 05:41:49;;;;;;;17.40;11.10;;;;;;;23.48;100.00;99215.80;109384;1252;59030;-75
2023/08/27 05:44:17;;;;;;;22.70;10.90;;;;;;;23.64;100.00;99210.73;109385;1251;60082;-75
2023/08/27 05:46:44;;;;;;;22.40;11.20;;;;;;;23.81;100.00;99202.20;109406;1251;74574;-75
2023/08/27 05:49:13;;;;;;;20.70;10.80;;;;;;;23.96;100.00;99198.99;109285;1251;70884;-75
2023/08/27 05:51:40;;;;;;;16.20;9.40;;;;;;;24.12;100.00;99191.91;109232;1251;71863;-75
2023/08/27 05:54:08;;;;;;;16.70;10.00;;;;;;;24.28;100.00;99194.50;109370;1255;60110;-74
2023/08/27 05:56:37;;;;;;;13.10;9.90;;;;;;;24.42;100.00;99187.37;109300;1251;60182;-75
2023/08/27 05:59:04;;;;;;;16.20;8.90;;;;;;;24.56;100.00;99186.98;109289;1251;72908;-75
2023/08/27 06:01:32;;;;;;;17.90;9.60;;;;;;;24.70;100.00;99187.55;109424;1251;71100;-75
2023/08/27 06:04:00;;;;;;;12.10;8.70;;;;;;;24.86;100.00;99186.88;109408;1251;72497;-75
2023/08/27 06:06:27;;;;;;;16.50;9.00;;;;;;;25.00;100.00;99185.33;109309;1251;59089;-75
2023/08/27 06:08:55;;;;;;;14.80;8.80;;;;;;;25.14;100.00;99181.95;109255;1251;59049;-74
2023/08/27 06:11:22;;;;;;;14.80;8.40;;;;;;;25.26;100.00;99181.10;109354;1251;74601;-74
2023/08/27 06:13:50;;;;;;;11.50;7.90;;;;;;;25.38;100.00;99170.54;109287;1251;69491;-76
2023/08/27 06:16:17;;;;;;;13.20;8.00;;;;;;;25.51;100.00;99167.60;109241;1251;72640;-75
2023/08/27 06:18:45;;;;;;;13.80;7.60;;;;;;;25.62;100.00;99159.86;109415;1251;58962;-75
2023/08/27 06:21:12;;;;;;;13.00;7.60;;;;;;;25.73;100.00;99161.03;109400;1251;59973;-74
2023/08/27 06:23:40;;;;;;;15.40;8.40;;;;;;;25.85;100.00;99159.13;109417;1251;73386;-76
2023/08/27 06:26:07;;;;;;;19.00;8.00;;;;;;;25.93;100.00;99149.40;109281;1251;70748;-75
2023/08/27 06:28:35;;;;;;;11.40;7.90;;;;;;;26.00;100.00;99143.56;109223;1251;72359;-75
2023/08/27 06:31:03;;;;;;;12.00;8.10;;;;;;;26.07;100.00;99139.07;109232;1251;60033;-75
2023/08/27 06:33:31;;;;;;;11.40;7.70;;;;;;;26.12;100.00;99141.36;109434;1251;60222;-74
2023/08/27 06:35:58;;;;;;;14.10;7.80;;;;;;;26.20;100.00;99141.31;109445;1251;74613;-74
2023/08/27 06:38:26;;;;;;;21.10;9.70;;;;;;;26.28;100.00;99142.57;109285;1251;69580;-75
2023/08/27 06:40:53;;;;;;;13.00;8.60;;;;;;;26.39;100.00;99147.18;109376;1251;72439;-76
2023/08/27 06:43:21;;;;;;;10.60;7.90;;;;;;;26.50;100.00;99149.17;109219;1253;60052;-75
2023/08/27 06:45:48;;;;;;;9.90;7.30;;;;;;;26.62;100.00;99144.83;109280;1251;59437;-75
2023/08/27 06:48:16;;;;;;;14.60;7.50;;;;;;;26.73;100.00;99139.23;109300;1251;74605;-75
2023/08/27 06:50:45;;;;;;;12.00;7.90;;;;;;;26.82;100.00;99136.11;109400;1251;70780;-75
2023/08/27 06:53:13;;;;;;;11.60;7.80;;;;;;;26.90;100.00;99136.69;109260;1251;71448;-76
2023/08/27 06:55:42;;;;;;;14.10;7.20;;;;;;;26.99;100.00;99140.71;109325;1251;58973;-75
2023/08/27 06:58:09;;;;;;;14.30;7.10;;;;;;;27.10;100.00;99137.98;109385;1251;60420;-75
2023/08/27 07:00:39;;;;;;;11.90;7.80;;;;;;;27.21;100.00;99135.08;109305;1251;72913;-76
2023/08/27 07:03:08;;;;;;;9.70;6.90;;;;;;;27.30;100.00;99130.36;109268;1250;70928;-75
2023/08/27 07:05:35;;;;;;;12.40;6.60;;;;;;;27.34;100.00;99123.98;109404;1251;71359;-74
2023/08/27 07:08:04;;;;;;;16.10;7.50;;;;;;;27.41;100.00;99125.83;109399;1251;60820;-77
2023/08/27 07:10:31;;;;;;;13.40;7.70;;;;;;;27.47;100.00;99129.70;109297;1251;60472;-75
2023/08/27 07:12:59;;;;;;;19.10;9.40;;;;;;;27.53;100.00;99131.52;109292;1251;73452;-74
2023/08/27 07:15:26;;;;;;;12.50;7.90;;;;;;;27.60;100.00;99129.74;109394;1251;62159;-75
2023/08/27 07:17:54;;;;;;;10.50;6.80;;;;;;;27.68;100.00;99126.85;109375;1251;62411;-75
2023/08/27 07:20:23;;;;;;;9.50;7.40;;;;;;;27.76;100.00;99128.29;109410;1251;60132;-76
2023/08/27 07:22:50;;;;;;;10.00;7.30;;;;;;;27.86;100.00;99131.14;109298;1251;59344;-75
2023/08/27 07:25:18;;;;;;;11.30;7.20;;;;;;;28.00;100.00;99133.38;109450;1251;73457;-76
2023/08/27 07:27:46;;;;;;;12.60;7.50;;;;;;;28.12;100.00;99124.77;109312;1251;70964;-75
2023/08/27 07:30:13;;;;;;;16.80;7.20;;;;;;;28.24;100.00;99126.98;109329;1251;72906;-75
2023/08/27 07:32:41;;;;;;;10.90;6.70;;;;;;;28.37;100.00;99129.45;109401;1251;59396;-76
2023/08/27 07:35:08;;;;;;;15.40;7.50;;;;;;;28.51;100.00;99130.98;109305;1251;58862;-75
2023/08/27 07:37:37;;;;;;;16.20;7.30;;;;;;;28.66;100.00;99130.20;109288;1251;65715;-76
2023/08/27 07:40:09;;;;;;;8.70;6.50;;;;;;;28.79;100.00;99132.37;109396;1251;62451;-76
2023/08/27 07:42:37;;;;;;;11.60;7.00;;;;;;;28.91;100.00;99131.73;109393;1251;63770;-76
2023/08/27 07:45:05;;;;;;;15.10;7.00;;;;;;;29.02;100.00;99135.72;109369;1251;59445;-75
2023/08/27 07:47:33;;;;;;;15.70;6.80;;;;;;;29.08;100.00;99134.88;109418;1251;59202;-75
2023/08/27 07:50:00;;;;;;;10.50;6.30;;;;;;;29.13;100.00;99132.34;109322;1251;65815;-74
2023/08/27 07:52:28;;;;;;;8.70;6.70;;;;;;;29.22;100.00;99130.26;109342;1251;61183;-75
2023/08/27 07:54:57;;;;;;;8.00;6.40;;;;;;;29.33;100.00;99132.77;109314;1251;63713;-75
2023/08/27 07:57:25;;;;;;;9.30;6.70;;;;;;;29.45;100.00;99133.16;109260;1251;58834;-75
2023/08/27 07:59:54;;;;;;;12.40;6.50;;;;;;;29.51;100.00;99133.52;109313;1251;59083;-76
2023/08/27 08:02:21;;;;;;;11.40;6.20;;;;;;;29.57;100.00;99127.33;109458;1251;66130;-76
2023/08/27 08:04:50;;;;;;;9.90;6.20;;;;;;;29.69;100.00;99125.60;109328;1251;61036;-75
2023/08/27 08:07:17;;;;;;;10.30;6.50;;;;;;;29.80;100.00;99120.40;109371;1252;63767;-75
2023/08/27 08:09:45;;;;;;;8.10;5.50;;;;;;;29.88;100.00;99121.77;109419;1251;58951;-76
2023/08/27 08:12:12;;;;;;;10.90;5.60;;;;;;;29.92;100.00;99116.14;109466;1251;59190;-75
2023/08/27 08:14:40;;;;;;;7.70;5.30;;;;;;;29.90;100.00;99119.34;109442;1251;64512;-76
2023/08/27 08:17:08;;;;;;;9.20;5.70;;;;;;;29.94;100.00;99118.77;109392;1251;62396;-75
2023/08/27 08:19:37;;;;;;;8.00;5.10;;;;;;;29.98;100.00;99111.56;109411;1252;62620;-76
2023/08/27 08:22:05;;;;;;;12.80;5.40;;;;;;;30.05;100.00;99112.16;109380;1251;58937;-75
2023/08/27 08:24:32;;;;;;;8.80;5.60;;;;;;;30.14;100.00;99115.44;109292;1251;59130;-75
2023/08/27 08:27:02;;;;;;;9.50;4.90;;;;;;;30.10;100.00;99112.09;109462;1251;65786;-76
2023/08/27 08:29:33;;;;;;;8.80;5.50;;;;;;;29.99;100.00;99114.16;109447;1251;60957;-77
2023/08/27 08:32:01;;;;;;;10.40;5.90;;;;;;;29.92;100.00;99117.53;109428;1251;64273;-76
2023/08/27 08:34:28;;;;;;;10.00;5.40;;;;;;;29.91;100.00;99117.64;109392;1251;59053;-75
2023/08/27 08:36:56;;;;;;;5.80;4.50;;;;;;;29.99;100.00;99113.95;109404;1251;58861;-75
2023/08/27 08:39:24;;;;;;;9.30;5.40;;;;;;;30.13;100.00;99109.00;109435;1251;64519;-76
2023/08/27 08:42:39;;;;;;;8.30;5.30;;;;;;;30.24;100.00;99106.04;109450;1251;62775;-78
2023/08/27 08:45:13;;;;;;;6.50;4.40;;;;;;;30.36;100.00;99106.52;109298;1251;63757;-77
2023/08/27 08:47:41;;;;;;;11.30;4.80;;;;;;;30.44;100.00;99105.80;109444;1251;59015;-76
2023/08/27 08:50:09;;;;;;;7.80;3.70;;;;;;;30.48;100.00;99103.02;109314;1251;59074;-75
2023/08/27 08:52:40;;;;;;;10.40;4.30;;;;;;;30.56;100.00;99103.17;109210;1251;67657;-76
2023/08/27 08:55:09;;;;;;;8.10;4.50;;;;;;;30.69;100.00;99101.02;109409;1251;62163;-75
2023/08/27 08:57:49;;;;;;;7.10;4.20;;;;;;;30.83;100.00;99100.36;109433;1251;62452;-76
2023/08/27 09:00:17;;;;;;;7.20;4.10;;;;;;;30.96;100.00;99098.83;109375;1251;59036;-76
2023/08/27 09:02:46;;;;;;;8.70;4.90;;;;;;;31.04;100.00;99100.61;109223;1251;58988;-75
2023/08/27 09:05:16;;;;;;;9.80;4.80;;;;;;;31.04;100.00;99097.14;109485;1251;66304;-76
2023/08/27 09:07:44;;;;;;;7.00;3.70;;;;;;;31.06;100.00;99094.70;109251;1251;62262;-76
2023/08/27 09:10:12;;;;;;;6.10;4.30;;;;;;;31.13;100.00;99096.85;109394;1251;63751;-76
2023/08/27 09:12:39;;;;;;;9.00;4.10;;;;;;;31.23;100.00;99093.66;109321;1251;59094;-76
2023/08/27 09:15:10;;;;;;;5.90;3.70;;;;;;;31.34;100.00;99093.84;109409;1251;59000;-76
2023/08/27 09:17:38;;;;;;;14.40;3.90;;;;;;;31.48;100.00;99093.18;109413;1251;65696;-75
2023/08/27 09:20:09;;;;;;;6.00;3.60;;;;;;;31.55;100.00;99092.45;109465;1250;62188;-76
2023/08/27 09:22:37;;;;;;;4.60;3.80;;;;;;;31.63;100.00;99086.10;109391;1251;62519;-75
2023/08/27 09:25:05;;;;;;;14.30;4.00;;;;;;;31.64;100.00;99080.70;109367;1251;59272;-76
2023/08/27 09:27:32;;;;;;;6.40;3.80;;;;;;;31.58;100.00;99076.49;109413;1251;59217;-75
2023/08/27 09:30:00;;;;;;;6.50;3.70;;;;;;;31.60;100.00;99076.75;109432;1251;64425;-75
2023/08/27 09:32:28;;;;;;;5.10;3.70;;;;;;;31.64;100.00;99076.10;109289;1251;60898;-75
2023/08/27 09:34:59;;;;;;;5.50;3.70;;;;;;;31.66;100.00;99083.81;109429;1251;64066;-75
2023/08/27 09:37:27;;;;;;;8.70;3.50;;;;;;;31.60;100.00;99081.57;109422;1251;59297;-76
2023/08/27 09:39:55;;;;;;;7.70;4.20;;;;;;;31.49;100.00;99075.23;109431;1251;59022;-76
2023/08/27 09:42:23;;;;;;;4.20;3.60;;;;;;;31.50;100.00;99074.91;109443;1251;65441;-75
2023/08/27 09:44:51;;;;;;;6.30;3.50;;;;;;;31.64;100.00;99077.83;109441;1251;60885;-75
2023/08/27 09:47:30;;;;;;;5.20;3.50;;;;;;;31.80;100.00;99077.23;109370;1251;62795;-75
2023/08/27 09:50:00;;;;;;;5.90;3.70;;;;;;;31.91;100.00;99075.95;109425;1251;59225;-75
2023/08/27 09:52:27;;;;;;;8.30;3.90;;;;;;;31.91;100.00;99075.45;109468;1251;58984;-77
2023/08/27 09:54:54;;;;;;;4.40;3.40;;;;;;;31.84;100.00;99074.24;109429;1251;65710;-75
2023/08/27 09:57:22;;;;;;;8.30;3.50;;;;;;;31.86;100.00;99074.92;109428;1251;62136;-75
2023/08/27 09:59:50;;;;;;;6.10;3.40;;;;;;;31.95;100.00;99076.60;109422;1251;62475;-75
2023/08/27 10:02:17;;;;;;;5.30;3.10;;;;;;;32.03;100.00;99083.05;109403;1251;59031;-74
2023/08/27 10:04:53;;;;;;;5.70;3.30;;;;;;;32.03;100.00;99078.96;109456;1251;59312;-76
2023/08/27 10:07:21;;;;;;;4.70;3.10;;;;;;;31.96;100.00;99080.54;109447;1251;66496;-75
2023/08/27 10:09:50;;;;;;;4.90;3.20;;;;;;;31.92;100.00;99084.31;109432;1251;60897;-75
2023/08/27 10:12:18;;;;;;;8.00;3.80;;;;;;;31.91;100.00;99085.73;109407;1253;62536;-75
2023/08/27 10:14:45;;;;;;;4.90;2.80;;;;;;;31.96;100.00;99085.09;109427;1251;58955;-74
2023/08/27 10:17:14;;;;;;;7.40;3.00;;;;;;;32.03;100.00;99080.18;109417;1251;59090;-76
2023/08/27 10:19:41;;;;;;;5.90;2.50;;;;;;;32.05;100.00;99075.56;109479;1251;65820;-74
2023/08/27 10:22:10;;;;;;;3.70;2.90;;;;;;;32.07;100.00;99072.44;109457;1251;61118;-76
2023/08/27 10:24:37;;;;;;;4.80;2.50;;;;;;;32.21;100.00;99059.52;109433;1251;62531;-75
2023/08/27 10:27:05;;;;;;;4.70;2.80;;;;;;;32.42;100.00;99054.71;109353;1251;59000;-74
2023/08/27 10:29:33;;;;;;;13.20;3.00;;;;;;;32.60;100.00;99055.55;109445;1251;58989;-75
2023/08/27 10:32:02;;;;;;;6.60;2.40;;;;;;;32.60;100.00;99059.52;109408;1251;64503;-75
2023/08/27 10:34:32;;;;;;;3.20;2.30;;;;;;;32.52;100.00;99058.41;109465;1251;62677;-74
2023/08/27 10:37:03;;;;;;;5.80;2.60;;;;;;;32.48;100.00;99057.95;109390;1251;62442;-76
2023/08/27 10:39:31;;;;;;;6.30;2.70;;;;;;;32.50;100.00;99058.66;109402;1251;58987;-75
2023/08/27 10:41:59;;;;;;;5.00;2.40;;;;;;;32.52;100.00;99059.50;109402;1251;59037;-75
2023/08/27 10:44:26;;;;;;;5.10;2.20;;;;;;;32.52;100.00;99059.67;109430;1251;65707;-75
2023/08/27 10:47:17;;;;;;;3.70;1.90;;;;;;;32.54;100.00;99056.49;109439;1251;62532;-75
2023/08/27 10:49:47;;;;;;;4.10;2.20;;;;;;;32.54;100.00;99054.40;109428;1251;63779;-76
2023/08/27 10:52:19;;;;;;;4.80;1.90;;;;;;;32.56;100.00;99047.02;109404;1251;59353;-75
2023/08/27 10:54:47;;;;;;;7.10;3.00;;;;;;;32.62;99.06;99042.77;109359;1251;59052;-75
2023/08/27 10:57:20;;;;;;;2.70;1.90;;;;;;;32.67;96.36;99036.34;109404;1251;66814;-76
2023/08/27 10:59:48;;;;;;;2.90;2.00;;;;;;;32.68;86.83;99037.85;109444;1251;61584;-74
2023/08/27 11:02:16;;;;;;;4.40;2.00;;;;;;;32.64;87.54;99034.75;109414;1251;63810;-74
2023/08/27 11:04:48;;;;;;;5.50;2.00;;;;;;;32.64;94.82;99033.78;109472;1251;59050;-74
2023/08/27 11:07:17;;;;;;;2.90;2.10;;;;;;;32.74;90.57;99032.33;109479;1251;59386;-75
2023/08/27 11:09:55;;;;;;;2.60;2.00;;;;;;;32.76;94.01;99024.26;109441;1251;66346;-73
2023/08/27 11:12:23;;;;;;;2.70;1.90;;;;;;;32.86;95.75;99023.14;109432;1250;62254;-74
2023/08/27 11:14:54;;;;;;;4.80;1.90;;;;;;;33.02;93.52;99020.53;109451;1251;63831;-74